Aérodrome :
LOGIN :

S'inscrire | Disclaimer

   EN    FR    IT 

 










Légende :    VFR   VFR Marginal   IFR   IFR Intensif   IFR Très Intensif
Visi : 
Plafond : 
>= 8 km
>= 3000ft
5 à 8 km
1000 à 3000 ft
1500m à 5 km
500 à 1000 ft
800 à 1500m
200 à 500 ft
< 800m
< 200 ft
Symboles :   Orages  Brouillard  Fortes neiges  Fortes précipitations  Vent > 20 kt
SIGMETs :   Divers  Orages  Givrage  Turbulence  Onde Orograph.  Cendres Volcan.






- Altitude de l'aérodrome : 1058 ft
- Code IATA : SCN


EDDR - Saarbrücken

DERNIER METAR :
  • 270250Z VRB02KT CAVOK 16/14 Q1015

METARs EXPIRÉS :
  • 270220Z 17003KT CAVOK 16/14 Q1015
  • 270150Z 21003KT CAVOK 16/14 Q1015
  • 270120Z VRB01KT CAVOK 16/14 Q1015
  • 270050Z 22007KT 190V260 CAVOK 16/14 Q1015
  • 270020Z 19005KT CAVOK 16/14 Q1015

TAF TAF EDDR
Valide du 27 à 00h jusqu'au 28 à 00h UTC


262300Z 2700/2724 21005KT 9999 FEW035
PROB30
TEMPO 2703/2707 3500 BR BKN005
TEMPO 2713/2720 SHRA BKN040CB
PROB30
TEMPO 2715/2718 TSRA



MET'MAP, la Météo Aéronautique d'un coup d'oeil ! - Copyright ORBIFLY Décembre 2007 - Disclaimer

ORBIFLY MET'MAP TEAM :

Programmation & Développement : Alexandra Zaïnal
Sur une idée originale de : Baudouin d'Aumeries
Assistance à la programmation : Marc-Olivier Méhu
Soutien technique & logistique : Manuel Goepfert

Contact : metmap@orbifly.com




SOURCES & CREDITS :

   NOAA